Time;durP1;ratioP1;P1;durP2;ratioP2;P2;SDS_P1;SDS_P2;PMS_P1;PMS_P2;Temp;Humidity;BMP_temperature;BMP_pressure;BME280_temperature;BME280_humidity;BME280_pressure;Samples;Min_cycle;Max_cycle;Signal;HPM_P1;HPM_P2
2022/07/27 00:00:35;;;;;;;;;;;;;;;14.10;100.00;102078.88;5035847;28;19925;-54
2022/07/27 00:03:00;;;;;;;;;;;;;;;14.08;100.00;102086.06;5034610;28;19920;-56
2022/07/27 00:05:25;;;;;;;;;;;;;;;14.05;100.00;102080.84;5051109;28;19928;-56
2022/07/27 00:07:50;;;;;;;;;;;;;;;14.05;100.00;102081.72;5033638;28;19909;-53
2022/07/27 00:10:16;;;;;;;;;;;;;;;14.07;100.00;102082.53;5033676;28;19921;-54
2022/07/27 00:12:41;;;;;;;;;;;;;;;14.10;100.00;102073.53;5036825;28;19974;-55
2022/07/27 00:15:07;;;;;;;;;;;;;;;14.14;100.00;102076.94;5053468;28;19916;-55
2022/07/27 00:17:32;;;;;;;;;;;;;;;14.18;100.00;102083.88;5034112;28;20399;-52
2022/07/27 00:19:57;;;;;;;;;;;;;;;14.22;100.00;102077.50;5052670;28;19923;-54
2022/07/27 00:22:22;;;;;;;;;;;;;;;14.28;100.00;102077.25;5035656;28;19913;-54
2022/07/27 00:24:48;;;;;;;;;;;;;;;14.34;100.00;102082.34;5052734;28;19921;-55
2022/07/27 00:27:13;;;;;;;;;;;;;;;14.41;100.00;102080.28;5052926;28;19970;-55
2022/07/27 00:29:38;;;;;;;;;;;;;;;14.49;100.00;102087.97;5053512;28;20008;-51
2022/07/27 00:32:04;;;;;;;;;;;;;;;14.51;100.00;102083.44;5053220;28;19995;-53
2022/07/27 00:34:29;;;;;;;;;;;;;;;14.50;100.00;102074.59;5052820;28;20011;-50
2022/07/27 00:36:54;;;;;;;;;;;;;;;14.47;100.00;102082.69;5034967;28;19964;-56
2022/07/27 00:39:19;;;;;;;;;;;;;;;14.43;100.00;102081.09;5053187;28;19920;-51
2022/07/27 00:41:45;;;;;;;;;;;;;;;14.38;100.00;102078.59;5035039;28;19924;-52
2022/07/27 00:44:11;;;;;;;;;;;;;;;14.31;100.00;102081.59;5052801;28;19927;-56
2022/07/27 00:46:36;;;;;;;;;;;;;;;14.24;100.00;102086.31;5051626;28;20003;-55
2022/07/27 00:49:01;;;;;;;;;;;;;;;14.17;100.00;102068.81;5050883;28;20490;-53
2022/07/27 00:51:27;;;;;;;;;;;;;;;14.12;100.00;102073.47;5052721;28;19982;-51
2022/07/27 00:53:52;;;;;;;;;;;;;;;14.07;100.00;102071.00;5052621;28;19924;-53
2022/07/27 00:56:18;;;;;;;;;;;;;;;14.03;100.00;102072.91;5052734;28;19912;-52
2022/07/27 00:58:46;;;;;;;;;;;;;;;13.99;100.00;102070.44;5034475;28;19917;-54
2022/07/27 01:01:11;;;;;;;;;;;;;;;13.93;100.00;102064.41;5052691;28;19920;-54
2022/07/27 01:03:36;;;;;;;;;;;;;;;13.91;100.00;102065.41;5052827;28;19919;-53
2022/07/27 01:06:02;;;;;;;;;;;;;;;13.92;100.00;102068.00;5052220;28;19913;-54
2022/07/27 01:08:27;;;;;;;;;;;;;;;13.89;100.00;102067.28;5052203;28;19979;-54
2022/07/27 01:10:53;;;;;;;;;;;;;;;13.85;100.00;102073.63;5052299;28;20322;-51
2022/07/27 01:13:19;;;;;;;;;;;;;;;13.80;100.00;102065.84;5052167;28;19913;-52
2022/07/27 01:15:44;;;;;;;;;;;;;;;13.78;100.00;102070.34;5052352;28;19995;-54
2022/07/27 01:18:11;;;;;;;;;;;;;;;13.74;100.00;102064.25;5052174;28;19976;-55
2022/07/27 01:20:36;;;;;;;;;;;;;;;13.70;100.00;102062.66;5033914;28;19924;-55
2022/07/27 01:23:01;;;;;;;;;;;;;;;13.67;100.00;102062.78;5033141;28;19921;-55
2022/07/27 01:25:26;;;;;;;;;;;;;;;13.64;100.00;102065.53;5050494;28;19913;-52
2022/07/27 01:27:52;;;;;;;;;;;;;;;13.60;100.00;102063.94;5051672;28;19921;-56
2022/07/27 01:30:26;;;;;;;;;;;;;;;13.59;100.00;102064.84;5032810;28;19944;-52
2022/07/27 01:33:04;;;;;;;;;;;;;;;13.59;100.00;102063.09;5051126;28;19966;-52
2022/07/27 01:35:30;;;;;;;;;;;;;;;13.55;100.00;102063.25;5051851;28;19924;-55
2022/07/27 01:37:56;;;;;;;;;;;;;;;13.53;100.00;102062.41;5051683;28;19974;-54
2022/07/27 01:40:21;;;;;;;;;;;;;;;13.49;100.00;102067.03;5051614;28;20308;-56
2022/07/27 01:42:46;;;;;;;;;;;;;;;13.47;100.00;102063.53;5052084;28;20275;-51
2022/07/27 01:45:12;;;;;;;;;;;;;;;13.44;100.00;102064.50;5051795;28;19916;-55
2022/07/27 01:47:37;;;;;;;;;;;;;;;13.41;100.00;102059.31;5051459;28;20326;-53
2022/07/27 01:50:02;;;;;;;;;;;;;;;13.37;100.00;102060.34;5050495;28;20438;-52
2022/07/27 01:52:28;;;;;;;;;;;;;;;13.36;100.00;102060.38;5013322;28;20456;-52
2022/07/27 01:54:53;;;;;;;;;;;;;;;13.36;100.00;102063.03;5026483;28;19928;-53
2022/07/27 01:57:18;;;;;;;;;;;;;;;13.35;100.00;102055.97;5051833;28;19921;-51
2022/07/27 01:59:43;;;;;;;;;;;;;;;13.34;100.00;102063.09;5050826;28;19929;-56
2022/07/27 02:02:13;;;;;;;;;;;;;;;13.35;100.00;102058.63;5032897;28;20405;-55
2022/07/27 02:04:38;;;;;;;;;;;;;;;13.35;100.00;102054.19;5051920;28;19975;-54
2022/07/27 02:07:03;;;;;;;;;;;;;;;13.35;100.00;102053.31;5051074;28;19929;-55
2022/07/27 02:09:28;;;;;;;;;;;;;;;13.34;100.00;102054.22;5051575;28;19929;-56
2022/07/27 02:14:37;;;;;;;;;;;;;;;13.34;100.00;102051.56;5052224;28;20020;-54
2022/07/27 02:17:03;;;;;;;;;;;;;;;13.32;100.00;102054.28;5051650;28;19992;-53
2022/07/27 02:19:28;;;;;;;;;;;;;;;13.31;100.00;102055.19;5050910;28;20207;-53
2022/07/27 02:21:53;;;;;;;;;;;;;;;13.27;100.00;102054.47;5051675;28;19928;-55
2022/07/27 02:24:18;;;;;;;;;;;;;;;13.25;100.00;102051.00;5033811;28;19920;-53
2022/07/27 02:26:44;;;;;;;;;;;;;;;13.25;100.00;102058.97;5054423;28;19948;-52
2022/07/27 02:29:09;;;;;;;;;;;;;;;13.26;100.00;102058.06;5054979;28;19923;-57
2022/07/27 02:31:34;;;;;;;;;;;;;;;13.26;100.00;102043.88;5037874;28;20372;-52
2022/07/27 02:34:00;;;;;;;;;;;;;;;13.28;100.00;102044.69;5055496;28;19924;-55
2022/07/27 02:36:27;;;;;;;;;;;;;;;13.32;100.00;102054.28;5055558;28;19974;-52
2022/07/27 02:38:53;;;;;;;;;;;;;;;13.36;100.00;102044.41;5054835;28;19966;-56
2022/07/27 02:41:18;;;;;;;;;;;;;;;13.41;100.00;102045.13;5055074;28;19921;-57
2022/07/27 02:43:43;;;;;;;;;;;;;;;13.47;100.00;102044.91;5055264;28;19924;-54
2022/07/27 02:46:08;;;;;;;;;;;;;;;13.55;100.00;102044.63;5055429;28;19916;-53
2022/07/27 02:48:34;;;;;;;;;;;;;;;13.62;100.00;102045.25;5054819;28;19932;-55
2022/07/27 02:51:00;;;;;;;;;;;;;;;13.66;100.00;102036.19;5054760;28;19928;-57
2022/07/27 02:53:25;;;;;;;;;;;;;;;13.71;100.00;102037.78;5054991;28;19993;-56
2022/07/27 02:55:50;;;;;;;;;;;;;;;13.73;100.00;102041.25;5055153;28;19920;-53
2022/07/27 02:58:15;;;;;;;;;;;;;;;13.77;100.00;102039.31;5054821;28;19924;-49
2022/07/27 03:00:41;;;;;;;;;;;;;;;13.84;100.00;102040.81;5054281;28;19929;-53
2022/07/27 03:03:06;;;;;;;;;;;;;;;13.92;100.00;102044.03;5054551;28;19932;-54
2022/07/27 03:05:32;;;;;;;;;;;;;;;14.01;100.00;102042.81;5037175;28;19956;-56
2022/07/27 03:07:57;;;;;;;;;;;;;;;14.07;100.00;102039.06;5054890;28;19916;-57
2022/07/27 03:10:23;;;;;;;;;;;;;;;14.11;100.00;102039.81;5054496;28;19917;-57
2022/07/27 03:12:48;;;;;;;;;;;;;;;14.13;100.00;102041.47;5053960;28;19921;-56
2022/07/27 03:15:13;;;;;;;;;;;;;;;14.19;100.00;102048.34;5054739;28;19948;-56
2022/07/27 03:17:38;;;;;;;;;;;;;;;14.19;100.00;102043.84;5037076;28;20265;-57
2022/07/27 03:20:04;;;;;;;;;;;;;;;14.20;100.00;102050.94;5054307;28;19979;-57
2022/07/27 03:22:31;;;;;;;;;;;;;;;14.21;100.00;102049.16;5054080;28;20441;-56
2022/07/27 03:24:56;;;;;;;;;;;;;;;14.24;100.00;102049.00;5054341;28;19970;-56
2022/07/27 03:27:22;;;;;;;;;;;;;;;14.29;100.00;102046.16;5036648;28;19917;-57
2022/07/27 03:29:47;;;;;;;;;;;;;;;14.33;100.00;102048.63;5019575;28;20288;-57
2022/07/27 03:32:12;;;;;;;;;;;;;;;14.36;100.00;102043.19;5054116;28;19921;-57
2022/07/27 03:34:37;;;;;;;;;;;;;;;14.35;100.00;102041.44;5054397;28;19916;-56
2022/07/27 03:37:02;;;;;;;;;;;;;;;14.38;100.00;102033.31;5054136;28;20006;-57
2022/07/27 03:39:28;;;;;;;;;;;;;;;14.43;100.00;102041.13;5054254;28;20392;-57
2022/07/27 03:41:53;;;;;;;;;;;;;;;14.46;100.00;102048.13;5053876;28;19924;-54
2022/07/27 03:44:18;;;;;;;;;;;;;;;14.51;100.00;102043.47;5053601;28;19925;-56
2022/07/27 03:46:43;;;;;;;;;;;;;;;14.51;100.00;102049.66;5036289;28;19913;-52
2022/07/27 03:49:08;;;;;;;;;;;;;;;14.47;100.00;102049.88;5054093;28;19913;-56
2022/07/27 03:51:34;;;;;;;;;;;;;;;14.41;100.00;102053.63;5053777;28;19921;-56
2022/07/27 03:53:59;;;;;;;;;;;;;;;14.36;100.00;102051.19;5053269;28;19917;-57
2022/07/27 03:56:24;;;;;;;;;;;;;;;14.34;100.00;102054.84;5053784;28;19913;-57
2022/07/27 03:58:50;;;;;;;;;;;;;;;14.35;100.00;102053.91;5053694;28;20075;-56
2022/07/27 04:01:15;;;;;;;;;;;;;;;14.30;100.00;102053.25;5053480;28;20288;-56
2022/07/27 04:03:40;;;;;;;;;;;;;;;14.29;100.00;102049.69;5035280;28;19921;-53
2022/07/27 04:06:05;;;;;;;;;;;;;;;14.30;100.00;102059.41;5036098;28;19921;-56
2022/07/27 04:08:31;;;;;;;;;;;;;;;14.33;100.00;102053.09;5035904;28;19917;-56
2022/07/27 04:10:56;;;;;;;;;;;;;;;14.43;100.00;102054.44;5053672;28;19951;-57
2022/07/27 04:13:21;;;;;;;;;;;;;;;14.48;100.00;102060.44;5053017;28;19959;-56
2022/07/27 04:15:47;;;;;;;;;;;;;;;14.46;100.00;102054.31;5035532;28;19971;-53
2022/07/27 04:18:12;;;;;;;;;;;;;;;14.49;100.00;102059.53;5053629;28;19916;-56
2022/07/27 04:20:38;;;;;;;;;;;;;;;14.49;100.00;102062.19;5053473;28;19917;-57
2022/07/27 04:23:03;;;;;;;;;;;;;;;14.54;100.00;102059.31;5053157;28;20062;-55
2022/07/27 04:25:29;;;;;;;;;;;;;;;14.56;100.00;102068.97;5052812;28;19925;-55
2022/07/27 04:27:54;;;;;;;;;;;;;;;14.56;100.00;102065.47;5053423;28;19928;-57
2022/07/27 04:30:19;;;;;;;;;;;;;;;14.55;100.00;102072.59;5035491;28;19970;-57
2022/07/27 04:32:45;;;;;;;;;;;;;;;14.59;100.00;102068.88;5053082;28;19924;-55
2022/07/27 04:35:10;;;;;;;;;;;;;;;14.62;100.00;102067.88;5034931;28;19921;-55
2022/07/27 04:37:35;;;;;;;;;;;;;;;14.64;100.00;102071.38;5053368;28;19913;-51
2022/07/27 04:40:01;;;;;;;;;;;;;;;14.63;100.00;102068.72;5053251;28;19913;-53
2022/07/27 04:42:27;;;;;;;;;;;;;;;14.66;100.00;102074.84;5052688;28;20411;-51
2022/07/27 04:44:52;;;;;;;;;;;;;;;14.64;100.00;102078.47;5035134;28;20415;-57
2022/07/27 04:47:17;;;;;;;;;;;;;;;14.66;100.00;102065.97;5052630;28;19913;-57
2022/07/27 04:49:43;;;;;;;;;;;;;;;14.67;100.00;102068.56;5052231;28;19928;-56
2022/07/27 04:52:08;;;;;;;;;;;;;;;14.75;100.00;102074.44;5034184;28;20438;-55
2022/07/27 04:54:33;;;;;;;;;;;;;;;14.80;100.00;102078.72;5034144;28;19932;-56
2022/07/27 04:56:58;;;;;;;;;;;;;;;14.86;100.00;102082.00;5052117;28;19931;-56
2022/07/27 04:59:24;;;;;;;;;;;;;;;14.86;100.00;102079.31;5052584;28;19932;-55
2022/07/27 05:01:49;;;;;;;;;;;;;;;14.90;100.00;102083.59;5051766;28;19925;-54
2022/07/27 05:04:14;;;;;;;;;;;;;;;14.94;100.00;102078.13;5034405;28;19923;-56
2022/07/27 05:06:39;;;;;;;;;;;;;;;14.94;100.00;102086.13;5052129;28;20003;-55
2022/07/27 05:09:05;;;;;;;;;;;;;;;14.93;100.00;102082.59;5052788;28;19986;-53
2022/07/27 05:11:30;;;;;;;;;;;;;;;15.03;100.00;102083.06;5052182;28;19924;-54
2022/07/27 05:13:55;;;;;;;;;;;;;;;15.07;100.00;102082.84;5052241;28;19919;-56
2022/07/27 05:16:20;;;;;;;;;;;;;;;15.13;100.00;102081.72;5051994;28;20015;-53
2022/07/27 05:18:46;;;;;;;;;;;;;;;15.20;100.00;102090.31;5051308;28;20369;-56
2022/07/27 05:21:11;;;;;;;;;;;;;;;15.30;100.00;102085.44;5051890;28;19967;-53
2022/07/27 05:23:36;;;;;;;;;;;;;;;15.34;100.00;102095.03;5051627;28;19932;-57
2022/07/27 05:26:02;;;;;;;;;;;;;;;15.31;100.00;102095.19;5051498;28;20335;-56
2022/07/27 05:28:27;;;;;;;;;;;;;;;15.24;100.00;102094.56;5048463;28;20004;-55
2022/07/27 05:30:52;;;;;;;;;;;;;;;15.26;100.00;102092.72;5051800;28;19928;-54
2022/07/27 05:33:18;;;;;;;;;;;;;;;15.21;100.00;102094.72;5051893;28;20003;-53
2022/07/27 05:35:43;;;;;;;;;;;;;;;15.15;100.00;102093.16;5051934;28;20016;-54
2022/07/27 05:38:08;;;;;;;;;;;;;;;15.22;100.00;102093.78;5033725;28;19921;-56
2022/07/27 05:40:33;;;;;;;;;;;;;;;15.29;100.00;102089.88;5051278;28;20381;-55
2022/07/27 05:42:59;;;;;;;;;;;;;;;15.36;100.00;102091.38;5050116;28;20393;-52
2022/07/27 05:45:24;;;;;;;;;;;;;;;15.43;100.00;102099.09;5045686;28;19921;-55
2022/07/27 05:47:50;;;;;;;;;;;;;;;15.45;100.00;102107.88;5050409;28;19918;-55
2022/07/27 05:50:15;;;;;;;;;;;;;;;15.37;100.00;102111.78;5050235;28;19916;-54
2022/07/27 05:52:42;;;;;;;;;;;;;;;15.38;100.00;102110.84;5048632;28;19925;-56
2022/07/27 05:55:07;;;;;;;;;;;;;;;15.39;100.00;102115.22;5047774;28;20319;-53
2022/07/27 05:57:32;;;;;;;;;;;;;;;15.37;100.00;102113.56;5050165;28;19920;-56
2022/07/27 06:00:00;;;;;;;;;;;;;;;15.41;100.00;102112.53;5052037;28;20392;-53
2022/07/27 06:02:26;;;;;;;;;;;;;;;15.48;100.00;102105.09;5054673;28;19959;-54
2022/07/27 06:04:51;;;;;;;;;;;;;;;15.57;100.00;102116.22;5054901;28;20454;-54
2022/07/27 06:10:00;;;;;;;;;;;;;;;15.59;100.00;102118.81;5053676;28;19928;-54
2022/07/27 06:12:26;;;;;;;;;;;;;;;15.64;100.00;102124.81;5048499;28;19925;-53
2022/07/27 06:14:51;;;;;;;;;;;;;;;15.75;100.00;102126.13;5052279;28;19921;-55
2022/07/27 06:17:17;;;;;;;;;;;;;;;15.84;100.00;102115.94;5034144;28;19998;-56
2022/07/27 06:19:42;;;;;;;;;;;;;;;16.03;100.00;102123.06;5051957;28;20295;-56
2022/07/27 06:22:07;;;;;;;;;;;;;;;16.14;100.00;102130.53;5020904;28;19925;-55
2022/07/27 06:24:33;;;;;;;;;;;;;;;16.19;100.00;102126.72;5056417;28;19928;-55
2022/07/27 06:26:58;;;;;;;;;;;;;;;16.27;100.00;102130.84;5059741;28;19921;-55
2022/07/27 06:29:23;;;;;;;;;;;;;;;16.25;100.00;102125.56;5054808;28;19923;-54
2022/07/27 06:31:49;;;;;;;;;;;;;;;16.33;100.00;102133.22;5054623;28;20361;-56
2022/07/27 06:34:14;;;;;;;;;;;;;;;16.29;100.00;102135.19;5054203;28;19920;-56
2022/07/27 06:36:41;;;;;;;;;;;;;;;16.29;100.00;102132.50;5055013;28;19929;-55
2022/07/27 06:39:06;;;;;;;;;;;;;;;16.35;100.00;102137.53;5054246;28;19929;-56
2022/07/27 06:41:33;;;;;;;;;;;;;;;16.38;100.00;102134.72;5057483;28;19931;-56
2022/07/27 06:43:58;;;;;;;;;;;;;;;16.51;100.00;102140.34;5047493;28;19963;-55
2022/07/27 06:46:23;;;;;;;;;;;;;;;16.49;99.52;102139.53;5054165;28;19921;-56
2022/07/27 06:48:49;;;;;;;;;;;;;;;16.61;99.74;102143.44;5052817;28;19916;-54
2022/07/27 06:51:14;;;;;;;;;;;;;;;16.71;97.91;102136.69;5036313;28;19935;-55
2022/07/27 06:53:39;;;;;;;;;;;;;;;16.84;96.70;102134.25;5037228;28;19959;-57
2022/07/27 06:56:07;;;;;;;;;;;;;;;17.04;95.89;102140.41;5037986;28;19952;-56
2022/07/27 06:58:32;;;;;;;;;;;;;;;17.23;96.32;102139.47;5035165;28;20384;-54
2022/07/27 07:01:00;;;;;;;;;;;;;;;17.40;93.11;102139.44;5036321;28;19928;-55
2022/07/27 07:03:26;;;;;;;;;;;;;;;17.55;93.22;102139.59;5055707;28;19962;-56
2022/07/27 07:05:51;;;;;;;;;;;;;;;17.67;92.80;102145.16;5038762;28;19959;-56
2022/07/27 07:08:16;;;;;;;;;;;;;;;17.66;91.25;102140.72;5054383;28;19959;-56
2022/07/27 07:10:42;;;;;;;;;;;;;;;17.75;92.39;102143.84;5036368;28;19963;-55
2022/07/27 07:13:08;;;;;;;;;;;;;;;18.07;90.95;102131.41;5053609;28;19917;-55
2022/07/27 07:15:34;;;;;;;;;;;;;;;18.30;87.00;102140.81;5054196;28;19924;-57
2022/07/27 07:17:59;;;;;;;;;;;;;;;18.40;87.33;102146.53;5048876;28;20866;-57
2022/07/27 07:20:24;;;;;;;;;;;;;;;18.54;86.01;102152.91;5052930;28;19920;-55
2022/07/27 07:22:49;;;;;;;;;;;;;;;18.58;84.08;102149.09;5053964;28;19916;-56
2022/07/27 07:25:15;;;;;;;;;;;;;;;18.56;83.38;102148.31;5035696;28;20391;-56
2022/07/27 07:27:40;;;;;;;;;;;;;;;18.43;83.98;102154.38;5050975;28;20269;-56
2022/07/27 07:30:06;;;;;;;;;;;;;;;18.29;84.42;102146.28;5054150;28;19923;-56
2022/07/27 07:32:31;;;;;;;;;;;;;;;18.00;86.71;102152.28;5035862;28;19917;-55
2022/07/27 07:34:56;;;;;;;;;;;;;;;17.86;86.18;102146.81;5050484;28;19944;-56
2022/07/27 07:37:22;;;;;;;;;;;;;;;17.76;86.55;102150.94;5050697;28;19924;-56
2022/07/27 07:39:47;;;;;;;;;;;;;;;17.76;89.22;102156.28;5053122;28;19924;-57
2022/07/27 07:42:12;;;;;;;;;;;;;;;17.67;86.45;102160.34;5050732;28;19921;-56
2022/07/27 07:44:38;;;;;;;;;;;;;;;17.65;87.49;102163.09;5049499;28;19913;-56
2022/07/27 07:47:03;;;;;;;;;;;;;;;17.59;83.67;102159.91;5053574;28;20536;-56
2022/07/27 07:49:29;;;;;;;;;;;;;;;17.63;85.48;102164.97;5033815;28;19936;-57
2022/07/27 07:51:54;;;;;;;;;;;;;;;17.67;88.06;102161.22;5045786;28;19975;-56
2022/07/27 07:54:19;;;;;;;;;;;;;;;17.66;84.27;102170.19;5048683;28;19924;-54
2022/07/27 07:56:44;;;;;;;;;;;;;;;17.65;84.02;102159.56;5052645;28;19925;-57
2022/07/27 07:59:10;;;;;;;;;;;;;;;17.64;84.32;102168.56;5053403;28;19921;-55
2022/07/27 08:01:35;;;;;;;;;;;;;;;17.69;84.37;102170.00;5053335;28;20011;-55
2022/07/27 08:04:00;;;;;;;;;;;;;;;17.78;84.11;102155.25;5052638;28;19943;-57
2022/07/27 08:06:26;;;;;;;;;;;;;;;17.90;83.32;102161.75;5053205;28;19919;-55
2022/07/27 08:08:51;;;;;;;;;;;;;;;17.99;80.41;102158.63;5052854;28;19916;-57
2022/07/27 08:11:16;;;;;;;;;;;;;;;18.17;81.47;102161.22;5050622;28;19987;-49
2022/07/27 08:13:42;;;;;;;;;;;;;;;18.20;80.64;102160.19;5052710;28;20395;-50
2022/07/27 08:16:07;;;;;;;;;;;;;;;18.31;81.43;102155.06;5033816;28;19924;-49
2022/07/27 08:18:32;;;;;;;;;;;;;;;18.30;79.37;102161.38;5052230;28;19928;-50
2022/07/27 08:20:57;;;;;;;;;;;;;;;18.22;79.15;102167.19;5052882;28;20020;-58
2022/07/27 08:23:23;;;;;;;;;;;;;;;18.12;81.96;102174.00;5051563;28;19928;-58
2022/07/27 08:25:48;;;;;;;;;;;;;;;18.12;81.58;102172.22;5052147;28;19959;-54
2022/07/27 08:28:13;;;;;;;;;;;;;;;18.10;81.36;102167.88;5052396;28;19927;-55
2022/07/27 08:30:39;;;;;;;;;;;;;;;18.04;78.08;102168.22;5029465;28;19956;-56
2022/07/27 08:33:05;;;;;;;;;;;;;;;18.04;78.91;102177.13;5017505;28;19974;-57
2022/07/27 08:35:31;;;;;;;;;;;;;;;18.28;80.68;102168.66;5051181;28;19929;-57
2022/07/27 08:37:57;;;;;;;;;;;;;;;18.52;80.34;102174.47;5050125;28;20038;-57
2022/07/27 08:40:22;;;;;;;;;;;;;;;18.86;78.41;102177.00;5043925;28;20369;-58
2022/07/27 08:42:48;;;;;;;;;;;;;;;18.93;76.59;102175.72;5032696;28;19960;-57
2022/07/27 08:45:14;;;;;;;;;;;;;;;19.24;77.93;102174.72;5032427;28;19975;-56
2022/07/27 08:47:40;;;;;;;;;;;;;;;19.46;74.52;102179.69;5051918;28;20007;-57
2022/07/27 08:50:24;;;;;;;;;;;;;;;19.70;72.30;102180.94;5035067;28;20040;-56
2022/07/27 08:52:55;;;;;;;;;;;;;;;20.19;67.46;102182.38;5036923;28;19986;-56
2022/07/27 08:55:21;;;;;;;;;;;;;;;20.95;59.81;102178.31;5052668;28;19925;-57
2022/07/27 08:57:46;;;;;;;;;;;;;;;20.83;61.17;102177.31;5051772;28;20403;-57
2022/07/27 09:00:12;;;;;;;;;;;;;;;20.48;61.32;102180.47;5052444;28;19929;-57
2022/07/27 09:02:39;;;;;;;;;;;;;;;20.08;60.87;102177.69;5052540;28;19921;-57
2022/07/27 09:05:05;;;;;;;;;;;;;;;19.44;61.19;102180.75;5052582;28;20377;-56
2022/07/27 09:07:30;;;;;;;;;;;;;;;18.75;63.95;102180.31;5017180;28;19966;-56
2022/07/27 09:09:56;;;;;;;;;;;;;;;18.49;63.32;102178.19;5052206;28;20034;-58
2022/07/27 09:12:26;;;;;;;;;;;;;;;18.38;66.39;102190.47;5052578;28;19913;-57
2022/07/27 09:15:01;;;;;;;;;;;;;;;19.03;66.37;102186.75;5052493;28;19913;-58
2022/07/27 09:17:26;;;;;;;;;;;;;;;21.28;59.26;102177.81;5034499;28;19917;-57
2022/07/27 09:20:03;;;;;;;;;;;;;;;22.29;52.19;102172.56;5049731;28;19981;-56
2022/07/27 09:22:37;;;;;;;;;;;;;;;23.67;48.87;102172.00;5051583;28;19920;-57
2022/07/27 09:25:02;;;;;;;;;;;;;;;23.75;41.77;102175.91;5051745;28;19925;-57
2022/07/27 09:27:30;;;;;;;;;;;;;;;23.19;44.38;102170.31;5051819;28;20376;-57
2022/07/27 09:30:04;;;;;;;;;;;;;;;22.69;44.95;102169.63;5033379;28;19917;-58
2022/07/27 09:32:29;;;;;;;;;;;;;;;21.82;48.20;102167.81;5051662;28;19925;-58
2022/07/27 09:34:55;;;;;;;;;;;;;;;21.21;53.40;102163.03;5051919;28;19908;-57
2022/07/27 09:37:24;;;;;;;;;;;;;;;21.10;51.25;102177.25;5052003;28;19920;-57
2022/07/27 09:39:49;;;;;;;;;;;;;;;20.95;51.86;102168.38;5051383;28;19916;-56
2022/07/27 09:42:15;;;;;;;;;;;;;;;20.75;51.37;102168.88;5051979;28;20368;-56
2022/07/27 09:44:41;;;;;;;;;;;;;;;20.33;54.60;102173.41;5051614;28;20008;-57
2022/07/27 09:47:26;;;;;;;;;;;;;;;20.05;56.09;102165.31;5051639;28;20012;-58
2022/07/27 09:49:52;;;;;;;;;;;;;;;19.53;61.77;102173.91;5033338;28;20015;-57
2022/07/27 09:52:21;;;;;;;;;;;;;;;19.24;63.15;102173.88;5051708;28;19924;-56
2022/07/27 09:54:47;;;;;;;;;;;;;;;18.96;64.59;102173.72;5033938;28;19932;-57
2022/07/27 09:57:12;;;;;;;;;;;;;;;18.90;64.27;102175.88;5052138;28;19925;-57
2022/07/27 09:59:37;;;;;;;;;;;;;;;18.90;64.27;102181.25;5050906;28;19940;-56
2022/07/27 10:02:03;;;;;;;;;;;;;;;19.11;63.52;102173.75;5051115;28;19932;-54
2022/07/27 10:04:31;;;;;;;;;;;;;;;19.11;61.70;102174.63;5051487;28;20346;-57
2022/07/27 10:06:56;;;;;;;;;;;;;;;19.00;62.49;102174.38;5050979;28;19971;-55
2022/07/27 10:09:22;;;;;;;;;;;;;;;18.82;64.06;102177.19;5051568;28;19917;-55
2022/07/27 10:11:48;;;;;;;;;;;;;;;18.93;68.13;102175.72;5050622;28;20016;-56
2022/07/27 10:14:13;;;;;;;;;;;;;;;19.07;63.67;102175.75;5051217;28;19964;-56
2022/07/27 10:16:40;;;;;;;;;;;;;;;19.38;62.49;102157.78;5051686;28;19948;-56
2022/07/27 10:19:14;;;;;;;;;;;;;;;20.43;57.56;102169.16;5033753;28;19952;-56
2022/07/27 10:21:42;;;;;;;;;;;;;;;21.91;53.68;102153.66;5051173;28;19920;-56
2022/07/27 10:24:21;;;;;;;;;;;;;;;23.47;47.86;102153.78;5051264;28;20380;-56
2022/07/27 10:26:46;;;;;;;;;;;;;;;22.98;45.47;102161.13;5050774;28;19959;-57
2022/07/27 10:29:12;;;;;;;;;;;;;;;22.33;47.73;102153.34;5051460;28;19952;-55
2022/07/27 10:31:37;;;;;;;;;;;;;;;21.66;48.49;102165.34;5033446;28;19975;-56
2022/07/27 10:34:07;;;;;;;;;;;;;;;21.06;52.63;102162.28;5051432;28;20273;-58
2022/07/27 10:36:32;;;;;;;;;;;;;;;20.84;53.23;102159.31;5051235;28;19924;-54
2022/07/27 10:38:58;;;;;;;;;;;;;;;20.39;55.08;102164.94;5033541;28;19917;-56
2022/07/27 10:41:28;;;;;;;;;;;;;;;20.39;54.23;102171.19;5050999;28;19920;-56
2022/07/27 10:44:12;;;;;;;;;;;;;;;20.58;52.51;102167.28;5050527;28;19948;-56
2022/07/27 10:46:41;;;;;;;;;;;;;;;20.80;52.22;102164.03;5034131;28;19917;-57
2022/07/27 10:49:23;;;;;;;;;;;;;;;21.51;51.41;102155.63;5055119;28;20265;-56
2022/07/27 10:51:48;;;;;;;;;;;;;;;22.53;47.50;102159.09;5036481;28;19928;-57
2022/07/27 10:54:21;;;;;;;;;;;;;;;22.93;45.61;102161.50;5036858;28;19920;-57
2022/07/27 10:56:47;;;;;;;;;;;;;;;23.06;47.74;102153.31;5036755;28;19921;-57
2022/07/27 10:59:12;;;;;;;;;;;;;;;24.72;41.27;102149.09;5054717;28;19923;-57
2022/07/27 11:01:54;;;;;;;;;;;;;;;25.49;38.61;102158.75;5054101;28;19978;-56
2022/07/27 11:04:20;;;;;;;;;;;;;;;25.35;37.14;102154.53;5054331;28;19917;-56
2022/07/27 11:06:45;;;;;;;;;;;;;;;24.66;41.01;102164.00;5036319;28;19921;-57
2022/07/27 11:09:10;;;;;;;;;;;;;;;23.24;41.91;102160.00;5054223;28;20015;-58
2022/07/27 11:11:36;;;;;;;;;;;;;;;22.77;41.05;102169.91;5054790;28;19924;-56
2022/07/27 11:14:01;;;;;;;;;;;;;;;22.50;44.79;102162.06;5053341;28;19921;-55
2022/07/27 11:16:27;;;;;;;;;;;;;;;21.96;43.80;102169.53;5053825;28;19924;-57
2022/07/27 11:18:54;;;;;;;;;;;;;;;21.60;44.90;102168.50;5053934;28;19917;-57
2022/07/27 11:21:19;;;;;;;;;;;;;;;21.46;43.79;102161.34;5054290;28;20391;-57
2022/07/27 11:23:50;;;;;;;;;;;;;;;21.39;45.36;102155.50;5035939;28;19927;-57
2022/07/27 11:26:15;;;;;;;;;;;;;;;21.56;47.07;102159.75;5054489;28;19956;-56
2022/07/27 11:28:41;;;;;;;;;;;;;;;21.61;43.91;102170.19;5054036;28;19956;-57
2022/07/27 11:31:07;;;;;;;;;;;;;;;21.50;43.74;102154.78;5054448;28;19917;-57
2022/07/27 11:33:33;;;;;;;;;;;;;;;21.64;42.78;102158.34;5054163;28;19913;-56
2022/07/27 11:36:03;;;;;;;;;;;;;;;21.89;40.73;102158.31;5053568;28;19923;-57
2022/07/27 11:38:28;;;;;;;;;;;;;;;21.96;41.14;102158.75;5053818;28;19952;-57
2022/07/27 11:40:54;;;;;;;;;;;;;;;22.41;42.24;102152.78;5054047;28;19963;-57
2022/07/27 11:43:31;;;;;;;;;;;;;;;23.04;39.84;102148.03;5054185;28;19963;-57
2022/07/27 11:46:09;;;;;;;;;;;;;;;23.50;43.04;102146.28;5053483;28;20441;-56
2022/07/27 11:48:34;;;;;;;;;;;;;;;23.95;40.71;102152.69;5035459;28;20276;-56
2022/07/27 11:50:59;;;;;;;;;;;;;;;23.28;42.63;102149.81;5053556;28;19916;-57
2022/07/27 11:53:25;;;;;;;;;;;;;;;22.99;43.97;102149.34;5053866;28;19921;-55
2022/07/27 11:55:51;;;;;;;;;;;;;;;23.45;42.51;102150.34;5053315;28;19916;-57
2022/07/27 11:58:17;;;;;;;;;;;;;;;23.65;42.28;102152.31;5054192;28;19921;-57
2022/07/27 12:00:43;;;;;;;;;;;;;;;23.58;43.03;102161.88;5052964;28;19928;-57
2022/07/27 12:03:18;;;;;;;;;;;;;;;23.31;43.55;102156.81;5036299;28;19921;-58
2022/07/27 12:05:47;;;;;;;;;;;;;;;23.52;43.28;102165.94;5053141;28;20003;-59
2022/07/27 12:08:13;;;;;;;;;;;;;;;23.76;41.51;102154.16;5041442;28;19916;-55
2022/07/27 12:10:38;;;;;;;;;;;;;;;23.58;42.75;102150.22;5035304;28;20387;-57
2022/07/27 12:13:03;;;;;;;;;;;;;;;23.46;42.02;102143.94;5053380;28;19913;-56
2022/07/27 12:15:28;;;;;;;;;;;;;;;23.35;42.34;102151.06;5053407;28;19968;-57
2022/07/27 12:17:58;;;;;;;;;;;;;;;22.56;44.66;102151.66;5053049;28;19928;-57
2022/07/27 12:20:31;;;;;;;;;;;;;;;22.36;47.40;102150.44;5052695;28;19917;-57
2022/07/27 12:23:02;;;;;;;;;;;;;;;22.18;49.15;102151.78;5052717;28;20368;-57
2022/07/27 12:25:31;;;;;;;;;;;;;;;22.01;52.19;102144.91;5052853;28;19924;-57
2022/07/27 12:28:01;;;;;;;;;;;;;;;22.17;49.14;102150.91;5035410;28;19921;-57
2022/07/27 12:30:34;;;;;;;;;;;;;;;22.02;49.91;102149.31;5052778;28;19917;-56